Time;durP1;ratioP1;P1;durP2;ratioP2;P2;SDS_P1;SDS_P2;PMS_P1;PMS_P2;Temp;Humidity;BMP_temperature;BMP_pressure;BME280_temperature;BME280_humidity;BME280_pressure;Samples;Min_cycle;Max_cycle;Signal;HPM_P1;HPM_P2
2021/08/07 00:00:31;;;;;;;4.28;2.03;;;13.30;98.00;;;;;;6247700;23;20429;-71
2021/08/07 00:02:57;;;;;;;6.57;2.42;;;13.30;98.00;;;;;;6249531;23;20020;-71
2021/08/07 00:05:23;;;;;;;5.65;2.17;;;13.30;98.00;;;;;;6248974;23;20008;-71
2021/08/07 00:07:50;;;;;;;5.10;1.88;;;13.30;98.00;;;;;;6249026;23;20000;-70
2021/08/07 00:10:17;;;;;;;6.22;2.28;;;13.30;98.00;;;;;;6249689;23;20075;-71
2021/08/07 00:12:42;;;;;;;4.07;2.00;;;13.30;98.00;;;;;;6222651;23;20058;-71
2021/08/07 00:15:09;;;;;;;8.27;2.47;;;13.30;98.00;;;;;;6247577;23;20008;-71
2021/08/07 00:17:36;;;;;;;4.97;1.70;;;13.40;98.00;;;;;;6248959;23;20102;-71
2021/08/07 00:20:02;;;;;;;6.03;1.98;;;13.40;98.00;;;;;;6248909;23;20000;-71
2021/08/07 00:22:28;;;;;;;6.63;2.25;;;13.40;98.00;;;;;;6249454;23;20004;-71
2021/08/07 00:24:54;;;;;;;6.57;2.08;;;13.40;98.00;;;;;;6222412;23;20099;-71
2021/08/07 00:27:19;;;;;;;4.88;2.00;;;13.30;98.00;;;;;;6249224;23;20050;-71
2021/08/07 00:29:45;;;;;;;4.90;1.92;;;13.30;98.00;;;;;;6247556;23;20007;-71
2021/08/07 00:32:10;;;;;;;5.00;2.00;;;13.30;98.00;;;;;;6248979;23;20079;-71
2021/08/07 00:34:36;;;;;;;5.22;2.25;;;13.30;98.00;;;;;;6222189;23;20008;-71
2021/08/07 00:37:05;;;;;;;8.02;2.10;;;13.30;98.00;;;;;;6249209;23;20013;-71
2021/08/07 00:39:31;;;;;;;5.70;2.15;;;13.20;98.00;;;;;;6249126;23;20000;-71
2021/08/07 00:41:57;;;;;;;6.97;2.25;;;13.20;98.00;;;;;;6249242;23;20075;-71
2021/08/07 00:44:22;;;;;;;7.28;1.90;;;13.20;98.00;;;;;;6247032;23;20342;-71
2021/08/07 00:46:48;;;;;;;6.00;1.85;;;13.20;98.00;;;;;;6248782;23;20004;-71
2021/08/07 00:49:14;;;;;;;8.20;1.85;;;13.20;98.00;;;;;;6249008;23;20004;-71
2021/08/07 00:51:39;;;;;;;3.72;1.80;;;13.30;98.00;;;;;;6248719;23;20425;-71
2021/08/07 00:54:06;;;;;;;8.98;2.20;;;13.30;98.00;;;;;;6248413;23;20266;-71
2021/08/07 00:56:32;;;;;;;4.03;1.80;;;13.30;98.00;;;;;;6248589;23;20008;-72
2021/08/07 00:58:58;;;;;;;4.00;1.73;;;13.30;98.00;;;;;;6248891;23;20421;-71
2021/08/07 01:01:28;;;;;;;7.40;1.90;;;13.40;98.00;;;;;;6247411;23;20014;-72
2021/08/07 01:03:55;;;;;;;3.83;1.90;;;13.40;98.00;;;;;;6248670;23;20028;-71
2021/08/07 01:06:40;;;;;;;5.05;1.70;;;13.40;98.00;;;;;;6248727;23;20011;-71
2021/08/07 01:09:47;;;;;;;4.07;1.65;;;13.50;98.00;;;;;;6249035;23;20008;-71
2021/08/07 01:12:36;;;;;;;3.28;1.52;;;13.60;98.00;;;;;;6182262;23;20301;-71
2021/08/07 01:15:03;;;;;;;5.80;2.10;;;13.60;98.00;;;;;;6246779;23;20040;-71
2021/08/07 01:17:30;;;;;;;4.85;1.83;;;13.60;98.00;;;;;;6248713;23;20006;-71
2021/08/07 01:20:18;;;;;;;6.00;1.95;;;13.50;98.00;;;;;;6221849;23;19996;-70
2021/08/07 01:22:56;;;;;;;7.65;2.00;;;13.50;98.00;;;;;;6222125;23;20087;-71
2021/08/07 01:25:29;;;;;;;5.53;2.08;;;13.60;98.00;;;;;;6249117;23;20004;-69
2021/08/07 01:27:55;;;;;;;4.80;1.77;;;13.50;98.00;;;;;;6249549;23;20367;-69
2021/08/07 01:30:22;;;;;;;9.20;1.73;;;13.50;98.00;;;;;;6249618;23;20008;-69
2021/08/07 01:32:49;;;;;;;8.02;2.22;;;13.50;98.00;;;;;;6250564;23;20024;-70
2021/08/07 01:35:15;;;;;;;4.22;1.73;;;13.50;98.00;;;;;;6250638;23;20004;-70
2021/08/07 01:37:41;;;;;;;4.97;2.10;;;13.50;98.00;;;;;;6250956;23;19997;-69
2021/08/07 01:40:07;;;;;;;5.60;1.73;;;13.50;98.00;;;;;;6251016;23;19996;-69
2021/08/07 01:42:33;;;;;;;6.38;2.03;;;13.50;98.00;;;;;;6251105;23;20031;-68
2021/08/07 01:44:59;;;;;;;6.78;1.98;;;13.50;98.00;;;;;;6249163;23;20378;-69
2021/08/07 01:47:54;;;;;;;5.20;1.83;;;13.50;98.00;;;;;;6224043;23;20054;-69
2021/08/07 01:50:26;;;;;;;;;;;13.50;98.00;;;;;;6251382;23;20079;-69
2021/08/07 01:52:58;;;;;;;4.93;1.60;;;13.50;98.00;;;;;;6223950;23;19977;-70
2021/08/07 01:55:27;;;;;;;4.22;1.80;;;13.40;98.00;;;;;;6250857;23;20015;-70
2021/08/07 01:58:24;;;;;;;3.63;1.80;;;13.40;98.00;;;;;;6224055;23;19996;-69
2021/08/07 02:00:51;;;;;;;7.05;1.90;;;13.30;98.00;;;;;;6219394;23;20032;-72
2021/08/07 02:03:17;;;;;;;3.55;1.50;;;13.20;98.00;;;;;;6224020;23;20004;-69
2021/08/07 02:05:44;;;;;;;4.43;1.88;;;13.30;98.00;;;;;;6250845;23;20058;-69
2021/08/07 02:08:12;;;;;;;9.45;2.70;;;13.30;98.00;;;;;;6250270;23;20004;-69
2021/08/07 02:10:42;;;;;;;6.72;1.92;;;13.40;98.00;;;;;;6224169;23;20030;-69
2021/08/07 02:13:08;;;;;;;4.93;1.60;;;13.50;98.00;;;;;;6223629;23;20011;-70
2021/08/07 02:15:36;;;;;;;4.15;2.05;;;13.60;98.00;;;;;;6248157;23;20008;-71
2021/08/07 02:18:02;;;;;;;3.92;1.60;;;13.70;98.00;;;;;;6249729;23;20209;-71
2021/08/07 02:20:29;;;;;;;5.70;1.55;;;13.70;98.00;;;;;;6249424;23;20011;-72
2021/08/07 02:22:55;;;;;;;5.85;1.70;;;13.80;98.00;;;;;;6249207;23;20046;-71
2021/08/07 02:25:25;;;;;;;6.25;1.75;;;13.90;98.00;;;;;;6249402;23;20239;-70
2021/08/07 02:27:51;;;;;;;3.33;1.40;;;13.90;98.00;;;;;;6250319;23;20000;-71
2021/08/07 02:30:18;;;;;;;6.70;1.70;;;14.00;98.00;;;;;;6221725;23;20007;-71
2021/08/07 02:32:46;;;;;;;6.43;1.52;;;14.10;97.70;;;;;;6249067;23;20000;-71
2021/08/07 02:35:13;;;;;;;4.70;1.50;;;14.20;97.70;;;;;;6249595;23;20045;-71
2021/08/07 02:37:40;;;;;;;3.00;1.50;;;14.20;97.50;;;;;;6249734;23;20000;-70
2021/08/07 02:40:13;;;;;;;5.95;1.70;;;14.30;97.70;;;;;;6249118;22;20026;-70
2021/08/07 02:42:40;;;;;;;6.18;1.60;;;14.20;97.60;;;;;;6249273;23;20059;-70
2021/08/07 02:45:08;;;;;;;3.22;1.80;;;14.20;97.60;;;;;;6247839;23;20012;-70
2021/08/07 02:47:36;;;;;;;7.68;1.70;;;14.20;97.70;;;;;;6249176;23;20012;-71
2021/08/07 02:50:04;;;;;;;5.40;1.52;;;14.30;97.60;;;;;;6249487;23;20004;-70
2021/08/07 02:52:34;;;;;;;4.80;1.83;;;14.30;97.60;;;;;;6249003;23;20015;-71
2021/08/07 02:55:03;;;;;;;4.93;1.65;;;14.30;97.70;;;;;;6249580;23;20001;-70
2021/08/07 02:57:31;;;;;;;3.75;1.27;;;14.50;97.20;;;;;;6249356;23;20001;-70
2021/08/07 02:59:58;;;;;;;3.50;1.65;;;14.70;96.20;;;;;;6247663;23;20027;-69
2021/08/07 03:02:24;;;;;;;6.40;1.20;;;14.90;95.70;;;;;;6248827;23;20004;-70
2021/08/07 03:04:50;;;;;;;3.67;1.35;;;15.00;95.20;;;;;;6249027;23;20032;-71
2021/08/07 03:07:18;;;;;;;3.95;1.00;;;15.10;94.90;;;;;;6248947;23;20054;-71
2021/08/07 03:09:46;;;;;;;3.72;1.40;;;15.10;94.80;;;;;;6249098;23;20358;-71
2021/08/07 03:12:12;;;;;;;3.92;1.42;;;15.10;94.40;;;;;;6248714;23;20036;-71
2021/08/07 03:14:39;;;;;;;4.70;1.45;;;15.20;94.20;;;;;;6247307;23;20008;-71
2021/08/07 03:17:06;;;;;;;3.85;1.40;;;15.20;94.30;;;;;;6249648;23;20020;-70
2021/08/07 03:19:38;;;;;;;5.05;1.45;;;15.20;94.20;;;;;;6249103;23;20008;-70
2021/08/07 03:22:04;;;;;;;4.25;1.30;;;15.10;94.40;;;;;;6248579;23;20122;-70
2021/08/07 03:24:29;;;;;;;3.40;1.30;;;15.00;94.50;;;;;;6249065;23;20071;-71
2021/08/07 03:26:55;;;;;;;2.85;1.33;;;14.90;94.70;;;;;;6248880;23;20053;-71
2021/08/07 03:29:21;;;;;;;2.40;1.20;;;14.90;94.80;;;;;;6247418;23;20004;-70
2021/08/07 03:31:47;;;;;;;4.15;1.08;;;14.90;94.60;;;;;;6248811;23;20000;-69
2021/08/07 03:34:12;;;;;;;4.18;1.10;;;14.90;94.20;;;;;;6248565;23;19996;-71
2021/08/07 03:36:42;;;;;;;7.82;1.38;;;15.00;94.00;;;;;;6248460;23;20004;-69
2021/08/07 03:39:08;;;;;;;3.58;1.30;;;15.00;93.80;;;;;;6248872;23;20031;-70
2021/08/07 03:41:34;;;;;;;2.72;1.10;;;15.00;93.80;;;;;;6249008;23;20351;-71
2021/08/07 03:43:59;;;;;;;3.10;1.17;;;15.00;93.90;;;;;;6248086;23;20000;-69
2021/08/07 03:46:25;;;;;;;2.25;0.90;;;15.00;93.80;;;;;;6247971;23;20004;-71
2021/08/07 03:48:51;;;;;;;3.42;1.20;;;15.00;93.80;;;;;;6248835;23;20004;-70
2021/08/07 03:51:16;;;;;;;5.13;1.52;;;15.00;93.90;;;;;;6248429;23;20106;-70
2021/08/07 03:53:45;;;;;;;6.63;1.63;;;15.00;93.90;;;;;;6247407;23;20061;-70
2021/08/07 03:56:10;;;;;;;5.63;1.30;;;15.00;93.80;;;;;;6247291;23;20035;-70
2021/08/07 03:58:36;;;;;;;3.35;1.15;;;14.90;93.90;;;;;;6222610;23;20000;-71
2021/08/07 04:01:02;;;;;;;3.75;1.38;;;15.00;94.00;;;;;;6247270;23;20000;-71
2021/08/07 04:03:28;;;;;;;3.88;1.40;;;15.00;93.70;;;;;;6248715;23;20001;-71
2021/08/07 04:05:53;;;;;;;4.20;1.52;;;15.00;93.60;;;;;;6249377;23;20015;-72
2021/08/07 04:08:19;;;;;;;2.50;1.02;;;14.90;94.30;;;;;;6249485;23;20377;-71
2021/08/07 04:10:44;;;;;;;5.22;1.23;;;14.90;94.60;;;;;;6248301;23;20396;-70
2021/08/07 04:13:13;;;;;;;4.25;1.10;;;15.00;94.10;;;;;;6248473;23;20011;-70
2021/08/07 04:15:39;;;;;;;5.38;1.33;;;15.00;93.90;;;;;;6247626;23;20000;-71
2021/08/07 04:18:04;;;;;;;5.63;1.63;;;14.90;94.10;;;;;;6247993;23;20058;-70
2021/08/07 04:20:30;;;;;;;3.42;1.42;;;14.90;94.40;;;;;;6249330;23;20004;-70
2021/08/07 04:22:56;;;;;;;2.53;1.02;;;14.80;94.70;;;;;;6249572;23;20354;-69
2021/08/07 04:25:21;;;;;;;3.08;1.40;;;14.80;95.00;;;;;;6222631;23;20016;-71
2021/08/07 04:27:47;;;;;;;5.10;1.30;;;14.80;94.70;;;;;;6249605;23;20004;-71
2021/08/07 04:30:12;;;;;;;5.05;1.40;;;14.90;94.50;;;;;;6247383;23;20031;-71
2021/08/07 04:32:38;;;;;;;2.80;1.35;;;14.90;95.40;;;;;;6248981;23;20004;-71
2021/08/07 04:35:05;;;;;;;2.95;1.23;;;14.80;95.60;;;;;;6222270;23;20008;-70
2021/08/07 04:37:31;;;;;;;3.28;1.30;;;14.80;95.50;;;;;;6248787;23;20000;-71
2021/08/07 04:39:56;;;;;;;5.00;1.58;;;14.90;94.70;;;;;;6249304;23;20057;-71
2021/08/07 04:42:22;;;;;;;3.63;1.40;;;15.00;94.20;;;;;;6249573;23;20039;-71
2021/08/07 04:44:48;;;;;;;4.95;1.45;;;15.00;93.90;;;;;;6247439;23;20374;-71
2021/08/07 04:47:13;;;;;;;4.43;1.38;;;15.10;93.60;;;;;;6222421;23;20266;-71
2021/08/07 04:49:39;;;;;;;4.28;1.30;;;15.30;92.60;;;;;;6249452;23;20046;-71
2021/08/07 04:52:05;;;;;;;4.68;1.50;;;15.40;92.50;;;;;;6222807;23;20393;-71
2021/08/07 04:54:31;;;;;;;3.70;1.20;;;15.60;91.20;;;;;;6248881;23;20071;-71
2021/08/07 04:56:57;;;;;;;2.92;1.20;;;15.70;90.90;;;;;;6249222;23;19996;-71
2021/08/07 04:59:23;;;;;;;3.75;1.13;;;15.80;90.60;;;;;;6247636;23;20000;-72
2021/08/07 05:01:48;;;;;;;4.05;1.40;;;15.80;91.10;;;;;;6248893;23;20063;-70
2021/08/07 05:04:14;;;;;;;2.05;1.02;;;15.90;90.90;;;;;;6222727;23;20000;-71
2021/08/07 05:06:40;;;;;;;2.33;1.02;;;15.90;90.10;;;;;;6249451;23;20000;-71
2021/08/07 05:09:06;;;;;;;3.83;0.95;;;15.90;91.00;;;;;;6222147;23;20301;-71
2021/08/07 05:11:31;;;;;;;4.55;1.40;;;15.90;90.60;;;;;;6249034;23;20038;-71
2021/08/07 05:13:57;;;;;;;5.07;1.50;;;15.90;90.90;;;;;;6248634;23;20007;-71
2021/08/07 05:16:23;;;;;;;3.30;1.33;;;15.90;91.40;;;;;;6247156;23;20004;-71
2021/08/07 05:18:48;;;;;;;3.08;1.40;;;15.90;92.10;;;;;;6248628;23;20020;-71
2021/08/07 05:21:14;;;;;;;4.03;1.20;;;15.70;92.80;;;;;;6248760;23;20038;-71
2021/08/07 05:23:40;;;;;;;4.75;1.30;;;15.70;92.90;;;;;;6249140;23;20054;-71
2021/08/07 05:26:05;;;;;;;4.85;1.42;;;15.50;93.20;;;;;;6248704;23;20031;-70
2021/08/07 05:28:31;;;;;;;4.30;1.40;;;15.50;93.70;;;;;;6249106;23;20008;-71
2021/08/07 05:30:57;;;;;;;2.42;1.10;;;15.60;93.50;;;;;;6247129;23;20000;-72
2021/08/07 05:33:22;;;;;;;3.03;1.08;;;15.70;93.50;;;;;;6248678;23;20000;-71
2021/08/07 05:35:48;;;;;;;4.40;1.38;;;15.90;92.50;;;;;;6248820;23;20003;-71
2021/08/07 05:38:16;;;;;;;5.32;1.20;;;16.20;91.20;;;;;;6248489;23;20004;-71
2021/08/07 05:40:42;;;;;;;3.40;1.15;;;16.50;89.50;;;;;;6248738;23;20004;-71
2021/08/07 05:43:08;;;;;;;4.13;1.48;;;16.70;88.90;;;;;;6249208;23;20000;-72
2021/08/07 05:45:33;;;;;;;6.10;1.45;;;16.80;89.20;;;;;;6246701;23;20320;-72
2021/08/07 05:47:59;;;;;;;5.53;1.20;;;16.90;89.20;;;;;;6248870;23;20000;-71
2021/08/07 05:50:25;;;;;;;5.32;1.55;;;17.00;88.80;;;;;;6248782;23;20015;-71
2021/08/07 05:52:50;;;;;;;4.18;1.40;;;17.10;88.80;;;;;;6248693;23;20362;-71
2021/08/07 05:55:16;;;;;;;4.72;1.05;;;17.30;87.90;;;;;;6246895;23;20040;-71
2021/08/07 05:57:41;;;;;;;3.75;1.15;;;17.30;88.50;;;;;;6247680;23;20000;-71
2021/08/07 06:00:08;;;;;;;4.18;1.55;;;17.40;88.40;;;;;;6247140;23;20004;-71
2021/08/07 06:02:34;;;;;;;2.33;1.00;;;17.70;87.50;;;;;;6248485;23;20011;-72
2021/08/07 06:05:00;;;;;;;4.07;1.10;;;18.10;86.70;;;;;;6248876;23;20004;-72
2021/08/07 06:07:26;;;;;;;2.90;1.10;;;18.30;84.90;;;;;;6248805;23;20008;-71
2021/08/07 06:09:51;;;;;;;3.90;1.77;;;18.30;83.50;;;;;;6248902;23;20015;-71
2021/08/07 06:12:17;;;;;;;3.17;0.93;;;18.40;84.70;;;;;;6248861;23;20005;-71
2021/08/07 06:14:43;;;;;;;3.95;1.20;;;18.50;84.30;;;;;;6248171;23;20261;-71
2021/08/07 06:17:09;;;;;;;4.60;1.15;;;18.60;83.70;;;;;;6250269;23;19996;-71
2021/08/07 06:19:35;;;;;;;3.13;1.10;;;18.70;85.30;;;;;;6223632;23;20019;-72
2021/08/07 06:22:02;;;;;;;2.47;0.80;;;18.80;84.40;;;;;;6250639;23;20159;-71
2021/08/07 06:24:33;;;;;;;4.15;1.38;;;18.70;83.00;;;;;;6250550;23;20563;-72
2021/08/07 06:26:58;;;;;;;3.35;1.30;;;18.70;82.80;;;;;;6250309;23;19996;-72
2021/08/07 06:29:24;;;;;;;3.17;1.13;;;18.80;81.70;;;;;;6248579;23;20087;-71
2021/08/07 06:31:50;;;;;;;5.05;1.55;;;18.90;82.00;;;;;;6249356;23;20264;-72
2021/08/07 06:34:16;;;;;;;3.42;1.10;;;19.10;81.90;;;;;;6250014;23;20032;-72
2021/08/07 06:36:41;;;;;;;3.47;1.27;;;19.10;81.10;;;;;;6249249;23;20010;-71
2021/08/07 06:39:09;;;;;;;2.25;1.00;;;19.10;82.60;;;;;;6249721;23;20046;-71
2021/08/07 06:41:35;;;;;;;5.40;1.30;;;19.30;82.60;;;;;;6247985;23;20000;-72
2021/08/07 06:44:03;;;;;;;2.88;1.00;;;19.50;82.20;;;;;;6249183;23;20023;-72
2021/08/07 06:46:29;;;;;;;3.28;1.40;;;19.90;84.10;;;;;;6248923;23;20008;-71
2021/08/07 06:48:55;;;;;;;3.65;1.58;;;20.20;81.80;;;;;;6249650;23;20058;-72
2021/08/07 06:51:21;;;;;;;5.68;1.25;;;20.40;81.10;;;;;;6249197;23;20270;-72
2021/08/07 06:53:46;;;;;;;4.40;1.33;;;20.40;81.60;;;;;;6249914;23;20075;-72
2021/08/07 06:56:12;;;;;;;3.42;1.20;;;20.30;79.30;;;;;;6249300;23;20310;-71
2021/08/07 06:58:38;;;;;;;5.72;1.95;;;20.40;79.30;;;;;;6249462;23;20298;-71
2021/08/07 07:01:03;;;;;;;5.78;1.40;;;20.20;80.60;;;;;;6247440;23;20004;-71
2021/08/07 07:03:29;;;;;;;2.50;1.25;;;19.90;79.90;;;;;;6249736;23;20000;-70
2021/08/07 07:05:55;;;;;;;3.47;1.48;;;19.80;80.70;;;;;;6249532;23;20004;-70
2021/08/07 07:08:20;;;;;;;4.57;1.40;;;19.60;80.70;;;;;;6249855;23;20566;-69
2021/08/07 07:10:49;;;;;;;4.28;1.35;;;19.50;81.60;;;;;;6249642;23;20350;-70
2021/08/07 07:13:15;;;;;;;6.15;1.50;;;19.60;80.80;;;;;;6249268;23;20011;-71
2021/08/07 07:15:41;;;;;;;4.13;1.20;;;19.50;81.30;;;;;;6248171;23;20004;-72
2021/08/07 07:18:06;;;;;;;5.65;1.40;;;19.50;82.30;;;;;;6250096;23;19996;-71
2021/08/07 07:20:32;;;;;;;4.20;1.38;;;19.60;81.60;;;;;;6249139;23;20008;-71
2021/08/07 07:22:58;;;;;;;4.95;1.40;;;19.90;82.50;;;;;;6249548;23;20385;-70
2021/08/07 07:25:23;;;;;;;4.95;1.27;;;19.90;81.70;;;;;;6248833;23;20006;-70
2021/08/07 07:27:49;;;;;;;3.65;1.20;;;19.80;81.40;;;;;;6248848;23;20004;-69
2021/08/07 07:30:18;;;;;;;4.90;1.42;;;20.00;81.10;;;;;;6245553;23;20061;-71
2021/08/07 07:32:47;;;;;;;4.05;1.30;;;20.40;82.00;;;;;;6249599;23;20034;-71
2021/08/07 07:35:13;;;;;;;2.70;1.30;;;20.60;80.70;;;;;;6249106;23;20004;-71
2021/08/07 07:37:39;;;;;;;4.18;1.20;;;20.70;80.60;;;;;;6249034;23;20020;-71
2021/08/07 07:40:07;;;;;;;4.32;1.33;;;20.80;80.00;;;;;;6249093;23;20031;-72
2021/08/07 07:42:33;;;;;;;4.68;1.15;;;20.60;79.60;;;;;;6221849;23;20015;-71
2021/08/07 07:44:59;;;;;;;4.20;1.42;;;20.50;80.20;;;;;;6247596;23;20382;-71
2021/08/07 07:47:25;;;;;;;5.40;1.42;;;20.70;82.20;;;;;;6248862;23;20429;-71
2021/08/07 07:49:50;;;;;;;5.13;1.40;;;20.60;80.60;;;;;;6249072;23;20086;-71
2021/08/07 07:52:16;;;;;;;3.50;1.30;;;20.80;79.70;;;;;;6222320;23;20008;-71
2021/08/07 07:54:42;;;;;;;3.80;1.20;;;20.80;79.30;;;;;;6248850;23;20333;-71
2021/08/07 07:57:08;;;;;;;4.78;1.30;;;20.70;79.90;;;;;;6248574;23;20006;-70
2021/08/07 07:59:33;;;;;;;3.00;1.23;;;20.70;79.50;;;;;;6247535;23;20420;-70
2021/08/07 08:02:02;;;;;;;5.13;1.63;;;20.80;79.80;;;;;;6248416;23;20406;-71
2021/08/07 08:04:31;;;;;;;3.55;1.20;;;21.60;79.10;;;;;;6248047;23;19996;-71
2021/08/07 08:06:57;;;;;;;4.80;1.30;;;21.70;76.80;;;;;;6222234;23;20034;-71
2021/08/07 08:09:23;;;;;;;3.25;1.42;;;21.40;77.50;;;;;;6248318;23;20074;-71
2021/08/07 08:11:50;;;;;;;3.88;1.55;;;21.30;79.50;;;;;;6247949;23;20058;-71
2021/08/07 08:14:16;;;;;;;3.70;1.30;;;21.30;78.30;;;;;;6246633;23;20046;-71
2021/08/07 08:16:45;;;;;;;7.95;1.33;;;21.20;78.80;;;;;;6248904;23;20035;-72
2021/08/07 08:19:14;;;;;;;3.13;1.20;;;21.40;79.10;;;;;;6248469;23;20000;-71
2021/08/07 08:21:43;;;;;;;4.72;1.45;;;21.50;78.40;;;;;;6248663;23;20026;-71
2021/08/07 08:24:09;;;;;;;4.13;1.30;;;21.50;79.70;;;;;;6248497;23;20518;-71
2021/08/07 08:26:35;;;;;;;3.47;1.23;;;21.60;77.00;;;;;;6248472;23;20008;-71
2021/08/07 08:29:02;;;;;;;2.80;1.20;;;21.50;78.40;;;;;;6249032;23;20000;-72
2021/08/07 08:31:28;;;;;;;5.57;1.50;;;21.30;79.40;;;;;;6247694;23;20030;-71
2021/08/07 08:33:54;;;;;;;4.80;1.30;;;21.10;79.30;;;;;;6248160;23;20037;-71
2021/08/07 08:36:20;;;;;;;5.75;1.35;;;20.80;80.50;;;;;;6247984;23;20011;-71
2021/08/07 08:38:45;;;;;;;5.45;1.15;;;20.60;81.30;;;;;;6249250;23;20035;-71
2021/08/07 08:41:11;;;;;;;4.55;1.40;;;20.60;81.20;;;;;;6249246;23;20024;-71
2021/08/07 08:43:38;;;;;;;5.13;1.60;;;20.70;80.70;;;;;;6248464;23;20000;-71
2021/08/07 08:46:04;;;;;;;3.53;1.42;;;20.60;78.90;;;;;;6247496;23;20091;-72
2021/08/07 08:48:30;;;;;;;5.38;1.50;;;20.40;80.10;;;;;;6249252;23;20077;-71
2021/08/07 08:50:56;;;;;;;4.10;1.45;;;20.10;80.00;;;;;;6249447;23;20317;-71
2021/08/07 08:53:29;;;;;;;4.38;1.60;;;19.70;78.90;;;;;;6248897;23;20020;-71
2021/08/07 08:55:55;;;;;;;6.80;1.60;;;19.40;79.60;;;;;;6249079;23;20386;-70
2021/08/07 08:58:21;;;;;;;3.17;1.50;;;19.30;79.60;;;;;;6248169;23;20003;-71
2021/08/07 09:00:52;;;;;;;3.67;1.50;;;19.20;79.00;;;;;;6247588;23;20079;-71
2021/08/07 09:03:18;;;;;;;3.42;1.73;;;18.90;80.50;;;;;;6248824;23;20023;-72
2021/08/07 09:05:43;;;;;;;5.40;2.35;;;18.50;82.50;;;;;;6248778;23;20027;-71
2021/08/07 09:08:09;;;;;;;4.68;1.77;;;18.30;83.40;;;;;;6247556;23;20239;-71
2021/08/07 09:10:35;;;;;;;2.75;1.30;;;18.20;82.00;;;;;;6221467;23;20012;-71
2021/08/07 09:13:03;;;;;;;3.17;1.30;;;18.20;81.00;;;;;;6247715;23;20015;-71
2021/08/07 09:15:39;;;;;;;4.03;1.40;;;18.10;80.50;;;;;;6247084;23;20004;-70
2021/08/07 09:18:14;;;;;;;5.68;1.30;;;18.10;79.50;;;;;;6248885;23;20004;-71
2021/08/07 09:20:44;;;;;;;;;;;18.20;80.60;;;;;;6249037;23;20075;-71
2021/08/07 09:23:09;;;;;;;3.10;1.33;;;18.30;80.30;;;;;;6248260;23;19994;-71
2021/08/07 09:25:37;;;;;;;4.80;1.40;;;18.30;81.60;;;;;;6248092;23;20000;-71
2021/08/07 09:28:05;;;;;;;3.13;1.50;;;18.30;82.50;;;;;;6247348;23;20004;-71
2021/08/07 09:30:40;;;;;;;4.60;1.30;;;18.00;82.90;;;;;;6246231;23;20005;-71
2021/08/07 09:33:11;;;;;;;3.85;1.55;;;17.60;84.30;;;;;;6220864;23;20087;-71
2021/08/07 09:35:43;;;;;;;4.03;1.45;;;17.40;85.30;;;;;;6247445;23;20011;-71
2021/08/07 09:38:18;;;;;;;4.07;1.30;;;17.10;87.00;;;;;;6248124;23;20290;-71
2021/08/07 09:40:59;;;;;;;3.83;1.67;;;17.00;87.30;;;;;;6247655;23;19996;-71
2021/08/07 09:43:49;;;;;;;4.07;1.60;;;16.90;87.70;;;;;;6246412;23;20005;-70
2021/08/07 09:46:16;;;;;;;4.15;1.65;;;16.90;88.40;;;;;;6245094;23;20019;-71
2021/08/07 09:48:48;;;;;;;4.70;1.77;;;17.00;88.20;;;;;;6247699;23;20083;-71
2021/08/07 09:51:20;;;;;;;3.20;1.48;;;17.10;89.00;;;;;;6248353;23;20004;-71
2021/08/07 09:54:05;;;;;;;4.95;1.52;;;17.20;89.50;;;;;;6247527;23;20035;-71
2021/08/07 09:57:01;;;;;;;3.75;1.70;;;17.30;88.80;;;;;;6223196;23;20013;-71
2021/08/07 09:59:33;;;;;;;3.90;1.67;;;17.60;87.30;;;;;;6222164;23;20087;-72
2021/08/07 10:01:59;;;;;;;4.97;1.63;;;17.80;86.60;;;;;;6249446;23;20004;-70
2021/08/07 10:04:36;;;;;;;4.55;1.80;;;18.00;89.30;;;;;;6219292;23;20004;-71
2021/08/07 10:07:08;;;;;;;2.50;1.10;;;18.10;87.20;;;;;;6250321;23;20004;-71
2021/08/07 10:09:35;;;;;;;2.55;1.15;;;18.10;85.40;;;;;;6250203;23;20068;-70
2021/08/07 10:12:14;;;;;;;3.22;1.38;;;18.10;85.70;;;;;;6250706;23;20050;-72
2021/08/07 10:14:41;;;;;;;3.90;1.52;;;18.20;85.50;;;;;;6247804;23;20030;-71
2021/08/07 10:17:10;;;;;;;3.17;1.20;;;18.50;86.00;;;;;;6250503;23;20045;-72
2021/08/07 10:19:37;;;;;;;5.10;1.60;;;18.50;84.80;;;;;;6249773;23;20004;-70
2021/08/07 10:22:08;;;;;;;3.97;1.55;;;18.40;84.90;;;;;;6250464;23;20354;-71
2021/08/07 10:24:36;;;;;;;3.70;1.50;;;18.10;86.30;;;;;;6223670;23;20010;-72
2021/08/07 10:27:03;;;;;;;4.40;1.70;;;18.00;85.50;;;;;;6250482;23;20030;-71
2021/08/07 10:29:42;;;;;;;3.63;1.60;;;17.90;86.90;;;;;;6248611;23;20004;-71
2021/08/07 10:32:08;;;;;;;3.83;1.60;;;17.80;87.90;;;;;;6250362;23;20004;-72
2021/08/07 10:34:41;;;;;;;3.92;1.42;;;17.70;88.20;;;;;;6250214;23;20075;-72
2021/08/07 10:37:09;;;;;;;4.00;1.50;;;17.80;88.00;;;;;;6250249;23;20247;-71
2021/08/07 10:39:35;;;;;;;3.33;1.25;;;17.90;88.30;;;;;;6250325;23;20024;-71
2021/08/07 10:42:03;;;;;;;3.65;1.60;;;18.00;89.80;;;;;;6250228;23;20000;-72
2021/08/07 10:44:32;;;;;;;4.50;1.50;;;18.30;87.20;;;;;;6248255;23;20016;-71
2021/08/07 10:46:58;;;;;;;5.38;1.65;;;18.40;87.10;;;;;;6249648;23;20008;-71
2021/08/07 10:49:36;;;;;;;4.07;1.60;;;18.50;87.90;;;;;;6248989;23;20420;-72
2021/08/07 10:52:22;;;;;;;4.10;1.63;;;18.40;87.30;;;;;;6249426;23;20034;-71
2021/08/07 10:54:52;;;;;;;3.53;1.48;;;18.20;87.50;;;;;;6246402;23;20102;-71
2021/08/07 10:57:41;;;;;;;4.00;1.48;;;18.00;90.60;;;;;;6247981;23;20008;-70
2021/08/07 11:00:22;;;;;;;3.92;1.90;;;17.80;91.10;;;;;;6245725;23;19996;-70
2021/08/07 11:02:48;;;;;;;4.55;1.70;;;17.70;89.60;;;;;;6220061;23;20004;-70
2021/08/07 11:05:17;;;;;;;4.93;1.60;;;17.70;90.80;;;;;;6246614;23;20147;-71
2021/08/07 11:07:46;;;;;;;4.10;1.40;;;17.70;91.20;;;;;;6247590;23;20007;-71
2021/08/07 11:10:15;;;;;;;5.32;1.63;;;17.50;90.50;;;;;;6247963;23;20004;-71
2021/08/07 11:12:42;;;;;;;4.07;1.70;;;17.50;90.20;;;;;;6223486;23;20011;-72
2021/08/07 11:15:10;;;;;;;7.13;1.73;;;17.40;92.80;;;;;;6245001;23;20015;-71
2021/08/07 11:17:41;;;;;;;6.00;1.80;;;17.20;93.80;;;;;;6247590;23;20028;-71
2021/08/07 11:20:13;;;;;;;5.65;1.63;;;17.10;95.40;;;;;;6249718;23;20012;-72
2021/08/07 11:23:00;;;;;;;3.47;1.63;;;17.00;95.30;;;;;;6249849;23;20028;-72
2021/08/07 11:25:26;;;;;;;3.55;1.70;;;16.80;95.40;;;;;;6249536;22;20008;-72
2021/08/07 11:27:53;;;;;;;4.45;2.03;;;16.80;95.40;;;;;;6250159;23;20008;-71
2021/08/07 11:30:19;;;;;;;3.45;1.70;;;16.70;95.50;;;;;;6221624;23;20374;-71
2021/08/07 11:33:00;;;;;;;5.57;1.75;;;16.80;95.40;;;;;;6250127;23;20549;-72
2021/08/07 11:35:38;;;;;;;5.55;2.28;;;17.10;96.00;;;;;;6249980;23;20007;-72
2021/08/07 11:38:07;;;;;;;4.95;1.77;;;17.40;96.50;;;;;;6249438;23;20000;-72
2021/08/07 11:40:39;;;;;;;4.32;1.55;;;17.50;95.40;;;;;;6248957;23;20141;-71
2021/08/07 11:43:05;;;;;;;4.28;1.70;;;17.50;96.00;;;;;;6248800;23;20004;-72
2021/08/07 11:45:31;;;;;;;4.78;1.63;;;17.60;96.50;;;;;;6247596;23;20417;-72
2021/08/07 11:47:59;;;;;;;4.35;1.60;;;17.60;96.00;;;;;;6248094;23;20031;-71
2021/08/07 11:50:24;;;;;;;5.07;1.67;;;17.60;96.30;;;;;;6248555;23;20007;-69
2021/08/07 11:52:51;;;;;;;5.47;1.67;;;17.60;95.80;;;;;;6248851;23;20354;-71
2021/08/07 11:55:17;;;;;;;4.15;1.90;;;17.80;96.40;;;;;;6248889;23;20004;-70
2021/08/07 11:57:43;;;;;;;4.60;2.47;;;18.10;96.00;;;;;;6249677;23;20004;-71
2021/08/07 12:00:24;;;;;;;7.22;2.10;;;18.50;95.20;;;;;;6247179;23;20262;-71
2021/08/07 12:03:19;;;;;;;5.32;2.00;;;18.70;94.10;;;;;;6249560;23;20262;-71
2021/08/07 12:05:51;;;;;;;;;;;18.90;93.00;;;;;;6223319;23;20036;-71
2021/08/07 12:08:18;;;;;;;5.57;2.20;;;18.90;93.20;;;;;;6247882;23;19982;-71
2021/08/07 12:10:54;;;;;;;5.47;2.20;;;18.70;91.70;;;;;;6247480;23;20004;-72
2021/08/07 12:13:35;;;;;;;7.82;3.35;;;18.50;91.70;;;;;;6247101;23;20258;-72
2021/08/07 12:16:06;;;;;;;5.72;2.55;;;18.30;92.60;;;;;;6245157;23;20079;-72
2021/08/07 12:18:53;;;;;;;4.43;2.08;;;18.20;92.20;;;;;;6247981;23;20011;-71
2021/08/07 12:21:26;;;;;;;6.25;2.08;;;18.10;92.50;;;;;;6248433;23;20000;-71
2021/08/07 12:24:03;;;;;;;4.55;1.85;;;18.00;92.00;;;;;;6248265;23;20389;-71
2021/08/07 12:26:31;;;;;;;5.95;2.10;;;18.00;92.60;;;;;;6222461;23;20008;-71
2021/08/07 12:28:56;;;;;;;7.35;2.25;;;17.80;93.40;;;;;;6222783;23;20011;-72
2021/08/07 12:31:22;;;;;;;5.60;1.77;;;17.80;94.00;;;;;;6221140;23;20270;-71
2021/08/07 12:33:47;;;;;;;5.50;1.75;;;17.70;94.00;;;;;;6248625;23;20401;-71
2021/08/07 12:36:22;;;;;;;4.53;1.90;;;17.40;94.00;;;;;;6249069;23;20001;-71
2021/08/07 12:38:49;;;;;;;5.60;2.17;;;17.20;95.30;;;;;;6248876;23;20008;-71
2021/08/07 12:41:23;;;;;;;5.15;1.88;;;17.20;95.20;;;;;;6248943;23;20351;-71
2021/08/07 12:43:49;;;;;;;4.43;2.17;;;17.20;96.00;;;;;;6222371;23;20319;-72
2021/08/07 12:46:18;;;;;;;3.83;1.70;;;17.10;96.10;;;;;;6247516;23;20031;-71
2021/08/07 12:48:46;;;;;;;5.00;2.30;;;17.00;95.90;;;;;;6249272;23;20358;-72
2021/08/07 12:51:29;;;;;;;6.00;2.03;;;17.00;96.60;;;;;;6248962;23;20428;-71
2021/08/07 12:53:57;;;;;;;6.05;2.42;;;16.90;96.60;;;;;;6248616;23;20310;-71